หน้าหลัก
METAR-TAF:

METAR-TAF

ท่าอากาศยาน :

เดอรัม, อังกฤษ

ละติจูด: 54-31N, ลองจิจูด: 001-25W, ความสูง: 37 ม.

การสังเกตสภาพอากาศปัจจุบัน

รายงานได้ทำขึ้นเมื่อ 2 ชั่วโมงและ 29 นาทีที่แล้ว ณ เวลา 22:20 UTC
ลม 3 นอตจากตะวันตก/ตะวันตกเฉียงเหนือ
อุณหภูมิ 10°C
ความชื้น 93%
ความกดอากาศ 1020 hPa
ทัศนวิสัย 10 กม. หรือมากกว่า
ไม่มีเมฆต่ำกว่า 1,500 ม. และไม่มีเมฆคิวมูโลนิมบัส

METAR: EGNV 182220Z 30003KT CAVOK 10/09 Q1020

เวลา: 01:49 (00:49 UTC)

การพยากรณ์

รายงานได้ทำขึ้นเมื่อ 4 ชั่วโมงและ 47 นาทีที่แล้ว ณ เวลา 20:02 UTC
การพยากรณ์มีผลตั้งแต่วันที่ 18 ณ เวลา 20 UTC จนถึงวันที่ 18 ณ เวลา 23 UTC
ลม 5 นอตจากเหนือ
ทัศนวิสัย 10 กม. หรือมากกว่า
มีเมฆกระจายเป็นบางส่วนที่ความสูง 2500 ฟุต

TAF: EGNV 182002Z 1820/1823 35005KT 9999 SCT025

สังเกตการณ์สภาพอากาศและพยากรณ์อากาศของสนามบินมากกว่า 4000 แห่ง (รายงาน METAR และ TAF).

สถานีที่ดูได้จะแสดงไว้ด้วยจุดสีเหลืองและสีแดงบนแผนที่.

เลื่อนเมาส์ไปเหนือจุดเพื่อดูชื่อสถานี.

แล้วคลิกเพื่อดูสังเกตการณ์และการพยากรณ์สภาพอากาศ.

ในการเปลี่ยนแผนที่: คลิกที่ปุ่มสีเขียวที่มีกากบาทสีดำเพื่อซูมเข้า; ที่ปุ่มสีเขียวที่มีขีดเพื่อซูมออก; หรือที่ลูกศรสีเขียวเพื่อไปยังแผนที่ที่อยู่ติดกัน.


METAR-TAF: